createdAt,value
2019-05-05T00:01:47.706Z,2.60
2019-05-05T00:04:24.501Z,2.70
2019-05-05T00:06:51.699Z,2.63
2019-05-05T00:09:19.030Z,2.60
2019-05-05T00:12:05.285Z,2.73
2019-05-05T00:14:54.582Z,2.23
2019-05-05T00:17:22.614Z,2.20
2019-05-05T00:19:51.565Z,2.63
2019-05-05T00:22:18.767Z,2.77
2019-05-05T00:24:45.910Z,3.00
2019-05-05T00:27:14.948Z,2.10
2019-05-05T00:29:42.235Z,2.50
2019-05-05T00:32:09.519Z,2.70
2019-05-05T00:34:36.647Z,2.60
2019-05-05T00:37:04.710Z,3.07
2019-05-05T00:39:31.992Z,2.10
2019-05-05T00:41:59.175Z,2.03
2019-05-05T00:44:26.241Z,2.47
2019-05-05T00:47:22.301Z,2.23
2019-05-05T00:49:50.631Z,2.57
2019-05-05T00:52:18.177Z,2.33
2019-05-05T00:54:45.248Z,2.30
2019-05-05T00:57:12.409Z,2.40
2019-05-05T00:59:39.577Z,2.50
2019-05-05T01:02:34.338Z,2.47
2019-05-05T01:05:18.437Z,2.80
2019-05-05T01:07:45.626Z,2.50
2019-05-05T01:10:14.316Z,2.43
2019-05-05T01:12:41.584Z,2.50
2019-05-05T01:15:09.206Z,2.67
2019-05-05T01:17:36.702Z,2.50
2019-05-05T01:20:06.794Z,2.23
2019-05-05T01:22:34.178Z,2.47
2019-05-05T01:25:01.442Z,2.60
2019-05-05T01:27:28.929Z,2.10
2019-05-05T01:29:56.130Z,2.70
2019-05-05T01:32:28.046Z,2.43
2019-05-05T01:34:55.213Z,2.50
2019-05-05T01:37:31.544Z,2.33
2019-05-05T01:40:21.308Z,2.30
2019-05-05T01:42:48.509Z,1.93
2019-05-05T01:45:15.721Z,2.50
2019-05-05T01:47:42.796Z,2.77
2019-05-05T01:50:18.259Z,2.10
2019-05-05T01:52:39.043Z,2.33
2019-05-05T01:55:06.230Z,2.57
2019-05-05T01:57:34.436Z,2.43
2019-05-05T02:00:04.249Z,2.70
2019-05-05T02:02:31.416Z,2.10
2019-05-05T02:04:58.603Z,2.70
2019-05-05T02:07:25.688Z,3.00
2019-05-05T02:09:55.198Z,2.43
2019-05-05T02:12:22.044Z,2.37
2019-05-05T02:14:49.216Z,2.70
2019-05-05T02:17:16.417Z,2.70
2019-05-05T02:19:44.354Z,2.47
2019-05-05T02:22:11.604Z,2.30
2019-05-05T02:24:38.774Z,2.43
2019-05-05T02:27:05.949Z,2.47
2019-05-05T02:29:58.791Z,2.53
2019-05-05T02:32:45.024Z,2.03
2019-05-05T02:35:16.244Z,2.50
2019-05-05T02:37:45.721Z,2.60
2019-05-05T02:40:15.978Z,2.60
2019-05-05T02:42:45.524Z,2.50
2019-05-05T02:45:25.046Z,2.50
2019-05-05T02:48:08.890Z,2.53
2019-05-05T02:51:09.538Z,2.37
2019-05-05T02:53:44.554Z,2.97
2019-05-05T02:56:19.139Z,2.53
2019-05-05T02:58:47.713Z,2.40
2019-05-05T03:01:25.329Z,2.80
2019-05-05T03:03:54.254Z,2.40
2019-05-05T03:06:23.681Z,2.43
2019-05-05T03:08:54.264Z,2.67
2019-05-05T03:11:23.714Z,2.83
2019-05-05T03:13:54.286Z,2.90
2019-05-05T03:16:24.496Z,2.90
2019-05-05T03:18:51.949Z,2.70
2019-05-05T03:21:20.007Z,3.23
2019-05-05T03:23:47.393Z,3.60
2019-05-05T03:26:15.134Z,3.03
2019-05-05T03:28:46.017Z,2.87
2019-05-05T03:31:15.960Z,3.10
2019-05-05T03:33:45.855Z,2.60
2019-05-05T03:36:14.011Z,2.70
2019-05-05T03:38:41.632Z,2.70
2019-05-05T03:41:14.119Z,3.17
2019-05-05T03:44:01.357Z,2.90
2019-05-05T03:46:28.889Z,2.93
2019-05-05T03:48:56.029Z,3.00
2019-05-05T03:51:24.329Z,3.03
2019-05-05T03:53:53.564Z,2.33
2019-05-05T03:56:20.915Z,3.17
2019-05-05T03:58:48.665Z,2.63
2019-05-05T04:02:00.418Z,2.63
2019-05-05T04:04:29.463Z,3.33
2019-05-05T04:06:56.628Z,3.20
2019-05-05T04:09:24.364Z,3.00
2019-05-05T04:11:53.783Z,3.47
2019-05-05T04:14:21.052Z,2.87
2019-05-05T04:17:14.255Z,3.23
2019-05-05T04:19:44.287Z,3.10
2019-05-05T04:22:13.409Z,2.70
2019-05-05T04:24:40.533Z,3.00
2019-05-05T04:27:07.711Z,2.90
2019-05-05T04:29:34.895Z,3.43
2019-05-05T04:32:02.101Z,3.27
2019-05-05T04:34:29.286Z,3.27
2019-05-05T04:36:56.488Z,3.93
2019-05-05T04:39:23.771Z,3.40
2019-05-05T04:41:51.056Z,3.23
2019-05-05T04:44:18.137Z,2.93
2019-05-05T04:46:47.244Z,3.23
2019-05-05T04:49:23.380Z,2.40
2019-05-05T04:51:53.766Z,3.03
2019-05-05T04:54:25.103Z,3.50
2019-05-05T04:56:53.978Z,3.33
2019-05-05T04:59:23.392Z,3.17
2019-05-05T05:01:54.619Z,3.10
2019-05-05T05:04:29.820Z,3.10
2019-05-05T05:06:57.675Z,2.80
2019-05-05T05:09:24.824Z,2.50
2019-05-05T05:11:52.008Z,2.53
2019-05-05T05:14:19.172Z,2.60
2019-05-05T05:16:46.940Z,2.93
2019-05-05T05:19:14.116Z,2.30
2019-05-05T05:21:43.494Z,2.90
2019-05-05T05:24:10.500Z,2.60
2019-05-05T05:26:37.641Z,2.90
2019-05-05T05:29:04.867Z,2.83
2019-05-05T05:31:33.731Z,2.90
2019-05-05T05:34:00.981Z,2.73
2019-05-05T05:36:28.080Z,3.00
2019-05-05T05:38:59.484Z,2.80
2019-05-05T05:41:53.978Z,2.43
2019-05-05T05:44:40.707Z,2.50
2019-05-05T05:47:21.866Z,2.87
2019-05-05T05:49:55.765Z,2.60
2019-05-05T05:52:24.287Z,2.43
2019-05-05T05:54:53.456Z,2.50
2019-05-05T05:57:20.757Z,2.70
2019-05-05T05:59:48.114Z,2.23
2019-05-05T06:02:15.723Z,2.43
2019-05-05T06:04:44.595Z,2.40
2019-05-05T06:07:14.072Z,3.03
2019-05-05T06:09:43.585Z,2.23
2019-05-05T06:12:10.439Z,2.67
2019-05-05T06:14:37.648Z,2.60
2019-05-05T06:17:04.801Z,2.20
2019-05-05T06:19:33.805Z,2.50
2019-05-05T06:22:01.111Z,2.63
2019-05-05T06:24:28.291Z,2.50
2019-05-05T06:26:55.483Z,2.13
2019-05-05T06:29:23.931Z,2.73
2019-05-05T06:31:51.164Z,2.00
2019-05-05T06:34:18.633Z,2.37
2019-05-05T06:36:45.844Z,2.50
2019-05-05T06:39:13.660Z,1.97
2019-05-05T06:41:56.528Z,2.13
2019-05-05T06:44:30.599Z,1.70
2019-05-05T06:47:00.555Z,1.83
2019-05-05T06:49:27.677Z,1.77
2019-05-05T06:51:54.889Z,1.60
2019-05-05T06:54:24.070Z,2.20
2019-05-05T06:56:51.394Z,1.90
2019-05-05T06:59:18.605Z,2.00
2019-05-05T07:01:45.732Z,2.00
2019-05-05T07:04:13.966Z,1.90
2019-05-05T07:06:51.744Z,1.93
2019-05-05T07:09:10.336Z,1.80
2019-05-05T07:11:37.751Z,1.70
2019-05-05T07:14:05.066Z,1.87
2019-05-05T07:16:34.377Z,1.80
2019-05-05T07:19:01.315Z,2.10
2019-05-05T07:21:28.497Z,2.27
2019-05-05T07:23:56.083Z,1.50
2019-05-05T07:26:23.898Z,1.30
2019-05-05T07:28:51.069Z,1.10
2019-05-05T07:31:18.178Z,1.20
2019-05-05T07:33:45.651Z,1.10
2019-05-05T07:36:31.082Z,1.10
2019-05-05T07:38:58.250Z,0.90
2019-05-05T07:41:25.344Z,0.90
2019-05-05T07:43:54.239Z,1.00
2019-05-05T07:46:21.470Z,1.10
2019-05-05T07:48:48.642Z,0.90
2019-05-05T07:51:15.863Z,1.10
2019-05-05T07:53:44.320Z,0.90
2019-05-05T07:56:11.692Z,0.83
2019-05-05T07:58:38.914Z,1.03
2019-05-05T08:01:06.063Z,0.77
2019-05-05T08:03:33.952Z,1.00
2019-05-05T08:06:01.079Z,1.00
2019-05-05T08:08:28.214Z,0.90
2019-05-05T08:10:55.421Z,0.87
2019-05-05T08:13:24.296Z,0.85
2019-05-05T08:15:59.673Z,1.05
2019-05-05T08:18:28.186Z,1.00
2019-05-05T08:20:57.603Z,0.90
2019-05-05T08:23:35.362Z,1.00
2019-05-05T08:26:23.732Z,1.00
2019-05-05T08:29:16.408Z,1.10
2019-05-05T08:31:53.957Z,1.10
2019-05-05T08:34:21.157Z,1.30
2019-05-05T08:36:48.418Z,1.40
2019-05-05T08:39:15.601Z,1.57
2019-05-05T08:41:45.277Z,1.00
2019-05-05T08:44:14.088Z,1.77
2019-05-05T08:46:41.135Z,1.30
2019-05-05T08:49:08.387Z,1.27
2019-05-05T08:51:35.578Z,1.20
2019-05-05T08:54:03.894Z,1.10
2019-05-05T08:56:31.273Z,1.30
2019-05-05T08:58:58.527Z,1.20
2019-05-05T09:01:25.685Z,0.90
2019-05-05T09:03:53.562Z,1.10
2019-05-05T09:06:20.779Z,1.40
2019-05-05T09:08:48.259Z,1.23
2019-05-05T09:11:15.485Z,1.20
2019-05-05T09:13:44.625Z,1.47
2019-05-05T09:16:14.218Z,1.40
2019-05-05T09:18:57.967Z,1.63
2019-05-05T09:21:25.214Z,1.50
2019-05-05T09:23:59.944Z,1.40
2019-05-05T09:26:41.217Z,1.30
2019-05-05T09:29:26.647Z,1.57
2019-05-05T09:31:54.088Z,1.20
2019-05-05T09:34:21.318Z,1.30
2019-05-05T09:36:48.496Z,1.00
2019-05-05T09:39:15.709Z,1.40
2019-05-05T09:41:44.623Z,1.30
2019-05-05T09:44:13.611Z,1.50
2019-05-05T09:46:40.814Z,1.13
2019-05-05T09:49:07.972Z,1.30
2019-05-05T09:51:35.226Z,1.10
2019-05-05T09:54:11.839Z,1.20
2019-05-05T09:56:31.548Z,1.33
2019-05-05T09:58:58.818Z,1.40
2019-05-05T10:01:26.028Z,1.57
2019-05-05T10:03:55.791Z,1.80
2019-05-05T10:06:24.399Z,1.60
2019-05-05T10:08:53.746Z,1.20
2019-05-05T10:11:20.766Z,2.27
2019-05-05T10:13:47.941Z,1.40
2019-05-05T10:16:15.182Z,1.70
2019-05-05T10:18:42.321Z,1.93
2019-05-05T10:21:09.485Z,1.60
2019-05-05T10:23:39.029Z,1.57
2019-05-05T10:26:08.825Z,2.43
2019-05-05T10:28:35.878Z,1.73
2019-05-05T10:31:04.628Z,1.90
2019-05-05T10:33:31.915Z,2.00
2019-05-05T10:35:59.001Z,1.70
2019-05-05T10:38:26.213Z,1.90
2019-05-05T10:40:53.762Z,2.17
2019-05-05T10:43:21.012Z,2.20
2019-05-05T10:45:48.184Z,2.17
2019-05-05T10:48:15.299Z,1.50
2019-05-05T10:50:44.270Z,1.70
2019-05-05T10:53:13.655Z,2.10
2019-05-05T10:55:41.049Z,1.30
2019-05-05T10:58:08.310Z,1.63
2019-05-05T11:00:44.540Z,1.73
2019-05-05T11:03:14.508Z,1.40
2019-05-05T11:05:41.321Z,1.70
2019-05-05T11:08:09.009Z,1.60
2019-05-05T11:10:36.739Z,1.77
2019-05-05T11:13:04.108Z,1.70
2019-05-05T11:15:31.210Z,1.67
2019-05-05T11:17:58.275Z,1.80
2019-05-05T11:20:25.470Z,2.07
2019-05-05T11:22:54.192Z,1.77
2019-05-05T11:25:21.497Z,1.60
2019-05-05T11:27:49.067Z,1.37
2019-05-05T11:30:26.764Z,1.60
2019-05-05T11:33:23.915Z,1.57
2019-05-05T11:36:25.245Z,1.67
2019-05-05T11:38:53.650Z,2.10
2019-05-05T11:41:20.965Z,1.70
2019-05-05T11:43:48.182Z,1.50
2019-05-05T11:46:15.387Z,1.93
2019-05-05T11:48:43.881Z,2.40
2019-05-05T11:51:11.586Z,1.80
2019-05-05T11:53:38.750Z,1.67
2019-05-05T11:56:06.199Z,2.00
2019-05-05T11:58:34.065Z,2.10
2019-05-05T12:01:03.560Z,1.53
2019-05-05T12:03:30.521Z,1.73
2019-05-05T12:05:57.670Z,1.70
2019-05-05T12:08:25.694Z,2.10
2019-05-05T12:11:00.055Z,1.70
2019-05-05T12:13:27.335Z,1.40
2019-05-05T12:16:04.346Z,1.70
2019-05-05T12:18:31.486Z,1.60
2019-05-05T12:20:58.666Z,1.47
2019-05-05T12:23:25.708Z,1.37
2019-05-05T12:26:07.131Z,1.70
2019-05-05T12:28:54.572Z,1.47
2019-05-05T12:31:24.851Z,1.50
2019-05-05T12:33:52.011Z,2.00
2019-05-05T12:36:19.378Z,1.50
2019-05-05T12:38:46.451Z,1.50
2019-05-05T12:41:14.735Z,1.37
2019-05-05T12:43:44.124Z,1.50
2019-05-05T12:46:21.840Z,1.50
2019-05-05T12:48:49.347Z,1.40
2019-05-05T12:51:16.579Z,1.50
2019-05-05T12:53:44.099Z,1.70
2019-05-05T12:56:11.587Z,1.40
2019-05-05T12:58:38.753Z,1.33
2019-05-05T13:01:20.436Z,1.60
2019-05-05T13:03:47.610Z,1.60
2019-05-05T13:06:15.146Z,1.60
2019-05-05T13:08:44.455Z,1.73
2019-05-05T13:11:11.605Z,1.73
2019-05-05T13:13:38.822Z,1.97
2019-05-05T13:16:06.092Z,1.57
2019-05-05T13:18:33.919Z,2.53
2019-05-05T13:21:14.944Z,1.53
2019-05-05T13:23:54.229Z,2.13
2019-05-05T13:26:43.687Z,1.80
2019-05-05T13:29:11.103Z,1.57
2019-05-05T13:31:38.629Z,1.60
2019-05-05T13:34:05.832Z,1.60
2019-05-05T13:36:33.485Z,1.50
2019-05-05T13:39:00.711Z,2.07
2019-05-05T13:41:27.813Z,1.50
2019-05-05T13:43:56.951Z,1.30
2019-05-05T13:46:26.122Z,1.30
2019-05-05T13:48:55.505Z,1.60
2019-05-05T13:51:24.048Z,2.10
2019-05-05T13:53:51.274Z,1.50
2019-05-05T13:56:18.494Z,1.30
2019-05-05T13:58:45.697Z,1.40
2019-05-05T14:01:14.496Z,1.50
2019-05-05T14:03:42.177Z,1.80
2019-05-05T14:06:09.248Z,1.53
2019-05-05T14:08:36.567Z,1.43
2019-05-05T14:11:03.947Z,1.73
2019-05-05T14:13:31.098Z,1.30
2019-05-05T14:15:58.935Z,1.97
2019-05-05T14:18:26.157Z,1.70
2019-05-05T14:20:53.258Z,1.47
2019-05-05T14:23:20.889Z,1.70
2019-05-05T14:25:48.110Z,1.80
2019-05-05T14:28:18.070Z,1.73
2019-05-05T14:30:58.699Z,1.87
2019-05-05T14:33:29.003Z,1.73
2019-05-05T14:36:24.616Z,1.80
2019-05-05T14:38:54.258Z,1.87
2019-05-05T14:41:21.518Z,1.30
2019-05-05T14:43:48.721Z,2.17
2019-05-05T14:46:15.916Z,1.50
2019-05-05T14:48:44.063Z,1.33
2019-05-05T14:51:11.422Z,1.37
2019-05-05T14:53:38.617Z,1.90
2019-05-05T14:56:05.790Z,1.50
2019-05-05T14:58:32.978Z,1.83
2019-05-05T15:01:00.184Z,1.53
2019-05-05T15:03:27.362Z,1.50
2019-05-05T15:06:17.989Z,1.47
2019-05-05T15:09:04.840Z,1.37
2019-05-05T15:11:54.724Z,1.30
2019-05-05T15:14:24.262Z,2.00
2019-05-05T15:16:51.399Z,1.87
2019-05-05T15:19:18.815Z,1.57
2019-05-05T15:21:48.754Z,1.47
2019-05-05T15:24:15.245Z,1.53
2019-05-05T15:26:49.788Z,1.30
2019-05-05T15:29:11.629Z,1.53
2019-05-05T15:31:38.834Z,1.97
2019-05-05T15:34:06.292Z,1.60
2019-05-05T15:36:33.556Z,2.07
2019-05-05T15:39:00.987Z,1.93
2019-05-05T15:41:28.116Z,2.47
2019-05-05T15:43:55.372Z,1.27
2019-05-05T15:46:24.308Z,1.80
2019-05-05T15:48:51.713Z,1.50
2019-05-05T15:51:18.901Z,1.77
2019-05-05T15:53:46.092Z,1.70
2019-05-05T15:56:13.891Z,1.77
2019-05-05T15:58:41.234Z,1.90
2019-05-05T16:01:08.360Z,1.50
2019-05-05T16:03:35.578Z,1.73
2019-05-05T16:06:03.825Z,1.53
2019-05-05T16:08:31.095Z,1.93
2019-05-05T16:10:58.336Z,2.33
2019-05-05T16:13:25.573Z,1.90
2019-05-05T16:16:15.488Z,1.70
2019-05-05T16:19:07.887Z,1.50
2019-05-05T16:21:46.700Z,1.63
2019-05-05T16:24:19.597Z,1.73
2019-05-05T16:26:55.282Z,1.90
2019-05-05T16:29:23.762Z,1.80
2019-05-05T16:31:51.049Z,2.07
2019-05-05T16:34:18.305Z,1.87
2019-05-05T16:36:45.476Z,1.63
2019-05-05T16:39:13.822Z,1.90
2019-05-05T16:41:43.442Z,1.60
2019-05-05T16:44:10.619Z,1.80
2019-05-05T16:46:37.910Z,1.93
2019-05-05T16:49:05.052Z,2.10
2019-05-05T16:51:36.008Z,1.77
2019-05-05T16:54:07.612Z,1.70
2019-05-05T16:56:34.784Z,1.80
2019-05-05T16:59:01.968Z,1.70
2019-05-05T17:01:29.133Z,2.77
2019-05-05T17:04:08.361Z,2.00
2019-05-05T17:06:25.446Z,2.00
2019-05-05T17:08:52.698Z,1.83
2019-05-05T17:11:19.866Z,1.53
2019-05-05T17:14:00.426Z,1.73
2019-05-05T17:16:39.699Z,1.80
2019-05-05T17:19:13.920Z,1.90
2019-05-05T17:21:59.064Z,2.00
2019-05-05T17:24:26.384Z,1.97
2019-05-05T17:26:54.937Z,1.83
2019-05-05T17:29:23.550Z,1.93
2019-05-05T17:31:50.966Z,2.03
2019-05-05T17:34:18.150Z,2.20
2019-05-05T17:36:45.464Z,2.10
2019-05-05T17:39:12.959Z,1.70
2019-05-05T17:41:59.758Z,1.67
2019-05-05T17:44:38.549Z,2.17
2019-05-05T17:47:25.362Z,2.23
2019-05-05T17:49:58.229Z,1.70
2019-05-05T17:52:34.446Z,1.73
2019-05-05T17:55:21.238Z,2.00
2019-05-05T17:57:58.808Z,1.80
2019-05-05T18:00:18.098Z,1.70
2019-05-05T18:02:45.546Z,2.17
2019-05-05T18:05:13.960Z,1.90
2019-05-05T18:07:44.107Z,2.70
2019-05-05T18:10:18.760Z,2.10
2019-05-05T18:12:57.613Z,2.33
2019-05-05T18:15:43.470Z,2.40
2019-05-05T18:18:10.824Z,3.73
2019-05-05T18:20:37.942Z,2.50
2019-05-05T18:23:05.426Z,2.20
2019-05-05T18:25:34.700Z,2.13
2019-05-05T18:28:15.257Z,2.20
2019-05-05T18:30:31.062Z,2.07
2019-05-05T18:32:58.114Z,1.87
2019-05-05T18:35:25.301Z,1.90
2019-05-05T18:37:54.333Z,1.70
2019-05-05T18:40:21.648Z,1.83
2019-05-05T18:42:50.991Z,2.00
2019-05-05T18:45:18.377Z,1.80
2019-05-05T18:47:45.547Z,2.00
2019-05-05T18:50:13.638Z,2.50
2019-05-05T18:52:40.957Z,1.90
2019-05-05T18:55:08.549Z,2.30
2019-05-05T18:57:35.720Z,1.93
2019-05-05T19:00:04.207Z,2.27
2019-05-05T19:02:48.161Z,2.07
2019-05-05T19:05:40.771Z,2.20
2019-05-05T19:08:33.416Z,2.10
2019-05-05T19:11:00.719Z,2.77
2019-05-05T19:13:28.016Z,2.63
2019-05-05T19:15:55.462Z,2.70
2019-05-05T19:18:24.470Z,2.93
2019-05-05T19:21:11.348Z,2.47
2019-05-05T19:23:38.938Z,2.40
2019-05-05T19:26:07.791Z,2.50
2019-05-05T19:28:43.995Z,2.57
2019-05-05T19:31:04.403Z,3.03
2019-05-05T19:33:33.584Z,3.40
2019-05-05T19:36:00.625Z,3.20
2019-05-05T19:38:28.104Z,3.23
2019-05-05T19:40:56.328Z,2.83
2019-05-05T19:43:24.546Z,2.83
2019-05-05T19:45:51.791Z,3.13
2019-05-05T19:48:19.031Z,3.10
2019-05-05T19:50:49.753Z,2.97
2019-05-05T19:53:26.234Z,3.20
2019-05-05T19:55:54.631Z,3.30
2019-05-05T19:58:22.254Z,3.70
2019-05-05T20:00:49.481Z,3.70
2019-05-05T20:03:16.660Z,3.77
2019-05-05T20:05:46.092Z,3.60
2019-05-05T20:08:14.584Z,3.70
2019-05-05T20:10:41.763Z,3.90
2019-05-05T20:13:09.227Z,3.10
2019-05-05T20:15:44.309Z,3.60
2019-05-05T20:18:11.478Z,4.17
2019-05-05T20:20:38.559Z,3.10
2019-05-05T20:23:05.992Z,3.60
2019-05-05T20:25:34.040Z,3.80
2019-05-05T20:28:03.727Z,3.70
2019-05-05T20:30:31.158Z,4.17
2019-05-05T20:33:07.573Z,3.30
2019-05-05T20:35:49.686Z,3.50
2019-05-05T20:38:44.042Z,4.00
2019-05-05T20:41:14.269Z,3.30
2019-05-05T20:43:41.559Z,3.90
2019-05-05T20:46:08.725Z,3.90
2019-05-05T20:48:35.944Z,3.90
2019-05-05T20:51:03.029Z,4.00
2019-05-05T20:53:30.294Z,4.03
2019-05-05T20:55:57.805Z,3.30
2019-05-05T20:58:25.265Z,3.40
2019-05-05T21:00:52.433Z,3.60
2019-05-05T21:03:19.820Z,3.50
2019-05-05T21:05:46.885Z,3.67
2019-05-05T21:08:14.317Z,4.20
2019-05-05T21:10:41.659Z,3.20
2019-05-05T21:13:08.817Z,2.80
2019-05-05T21:15:35.870Z,4.07
2019-05-05T21:18:04.849Z,3.00
2019-05-05T21:20:32.020Z,3.43
2019-05-05T21:23:03.822Z,3.83
2019-05-05T21:25:33.741Z,3.40
2019-05-05T21:28:01.248Z,3.77
2019-05-05T21:30:28.435Z,3.53
2019-05-05T21:32:55.583Z,4.03
2019-05-05T21:35:24.042Z,3.37
2019-05-05T21:37:51.306Z,3.57
2019-05-05T21:40:19.648Z,4.10
2019-05-05T21:42:47.344Z,3.33
2019-05-05T21:45:14.643Z,3.53
2019-05-05T21:47:41.732Z,3.30
2019-05-05T21:50:10.957Z,3.50
2019-05-05T21:52:57.761Z,3.50
2019-05-05T21:55:39.389Z,3.33
2019-05-05T21:58:23.321Z,3.50
2019-05-05T22:01:04.484Z,3.27
2019-05-05T22:03:36.085Z,3.80
2019-05-05T22:06:03.798Z,3.37
2019-05-05T22:08:33.481Z,4.23
2019-05-05T22:11:00.392Z,4.00
2019-05-05T22:13:27.581Z,5.00
2019-05-05T22:15:54.850Z,3.87
2019-05-05T22:18:22.291Z,3.47
2019-05-05T22:20:55.705Z,3.93
2019-05-05T22:23:22.885Z,4.20
2019-05-05T22:25:50.046Z,3.73
2019-05-05T22:28:17.107Z,4.10
2019-05-05T22:30:44.312Z,3.83
2019-05-05T22:33:13.660Z,3.73
2019-05-05T22:35:40.601Z,3.47
2019-05-05T22:38:07.779Z,4.23
2019-05-05T22:40:34.966Z,3.43
2019-05-05T22:43:03.671Z,3.90
2019-05-05T22:45:31.162Z,4.40
2019-05-05T22:47:58.206Z,4.10
2019-05-05T22:50:25.378Z,4.23
2019-05-05T22:52:54.487Z,4.10
2019-05-05T22:55:21.659Z,5.27
2019-05-05T22:57:48.841Z,3.70
2019-05-05T23:00:26.643Z,4.30
2019-05-05T23:02:54.949Z,4.37
2019-05-05T23:05:54.677Z,5.80
2019-05-05T23:08:24.191Z,4.10
2019-05-05T23:10:51.065Z,4.53
2019-05-05T23:13:18.244Z,3.93
2019-05-05T23:15:54.322Z,4.17
2019-05-05T23:18:25.720Z,3.60
2019-05-05T23:21:27.941Z,4.47
2019-05-05T23:24:17.556Z,4.70
2019-05-05T23:26:45.149Z,3.73
2019-05-05T23:29:12.589Z,4.10
2019-05-05T23:31:39.795Z,4.63
2019-05-05T23:34:06.944Z,4.23
2019-05-05T23:36:34.426Z,3.37
2019-05-05T23:39:03.920Z,4.30
2019-05-05T23:41:31.032Z,4.60
2019-05-05T23:43:58.740Z,4.80
2019-05-05T23:46:25.841Z,4.10
2019-05-05T23:48:53.664Z,4.23
2019-05-05T23:51:21.081Z,4.27
2019-05-05T23:53:48.261Z,4.30
2019-05-05T23:56:15.724Z,4.30
2019-05-05T23:58:44.052Z,4.17
